sensor_id;sensor_type;location;lat;lon;timestamp;P1;durP1;ratioP1;P2;durP2;ratioP2
18881;SDS011;9573;50.948;11.600;2023-02-16T00:01:37;29.90;;;9.93;;
18881;SDS011;9573;50.948;11.600;2023-02-16T00:04:07;29.90;;;10.13;;
18881;SDS011;9573;50.948;11.600;2023-02-16T00:06:43;34.57;;;11.37;;
18881;SDS011;9573;50.948;11.600;2023-02-16T00:09:10;31.10;;;10.20;;
18881;SDS011;9573;50.948;11.600;2023-02-16T00:11:37;28.63;;;10.40;;
18881;SDS011;9573;50.948;11.600;2023-02-16T00:14:24;32.50;;;10.33;;
18881;SDS011;9573;50.948;11.600;2023-02-16T00:16:52;28.77;;;10.10;;
18881;SDS011;9573;50.948;11.600;2023-02-16T00:19:22;30.73;;;10.47;;
18881;SDS011;9573;50.948;11.600;2023-02-16T00:21:53;29.03;;;10.50;;
18881;SDS011;9573;50.948;11.600;2023-02-16T00:24:22;29.67;;;10.33;;
18881;SDS011;9573;50.948;11.600;2023-02-16T00:26:51;32.20;;;10.00;;
18881;SDS011;9573;50.948;11.600;2023-02-16T00:29:19;33.33;;;10.23;;
18881;SDS011;9573;50.948;11.600;2023-02-16T00:31:53;32.37;;;10.80;;
18881;SDS011;9573;50.948;11.600;2023-02-16T00:34:26;32.17;;;10.60;;
18881;SDS011;9573;50.948;11.600;2023-02-16T00:36:57;31.67;;;11.03;;
18881;SDS011;9573;50.948;11.600;2023-02-16T00:39:26;31.87;;;10.67;;
18881;SDS011;9573;50.948;11.600;2023-02-16T00:41:56;34.73;;;11.23;;
18881;SDS011;9573;50.948;11.600;2023-02-16T00:44:29;30.03;;;10.23;;
18881;SDS011;9573;50.948;11.600;2023-02-16T00:47:00;29.83;;;10.07;;
18881;SDS011;9573;50.948;11.600;2023-02-16T00:49:31;30.50;;;9.97;;
18881;SDS011;9573;50.948;11.600;2023-02-16T00:51:58;30.43;;;10.37;;
18881;SDS011;9573;50.948;11.600;2023-02-16T00:54:26;34.03;;;11.10;;
18881;SDS011;9573;50.948;11.600;2023-02-16T00:56:53;31.53;;;10.37;;
18881;SDS011;9573;50.948;11.600;2023-02-16T00:59:20;30.83;;;10.40;;
18881;SDS011;9573;50.948;11.600;2023-02-16T01:01:50;30.37;;;10.83;;
18881;SDS011;9573;50.948;11.600;2023-02-16T01:04:18;29.50;;;10.57;;
18881;SDS011;9573;50.948;11.600;2023-02-16T01:06:48;31.13;;;10.73;;
18881;SDS011;9573;50.948;11.600;2023-02-16T01:09:32;28.93;;;9.90;;
18881;SDS011;9573;50.948;11.600;2023-02-16T01:12:17;31.23;;;10.77;;
18881;SDS011;9573;50.948;11.600;2023-02-16T01:14:46;32.37;;;10.80;;
18881;SDS011;9573;50.948;11.600;2023-02-16T01:17:19;30.03;;;10.10;;
18881;SDS011;9573;50.948;11.600;2023-02-16T01:19:47;29.80;;;10.30;;
18881;SDS011;9573;50.948;11.600;2023-02-16T01:22:14;31.07;;;10.47;;
18881;SDS011;9573;50.948;11.600;2023-02-16T01:24:42;30.90;;;10.63;;
18881;SDS011;9573;50.948;11.600;2023-02-16T01:27:09;29.27;;;10.43;;
18881;SDS011;9573;50.948;11.600;2023-02-16T01:29:38;30.83;;;10.20;;
18881;SDS011;9573;50.948;11.600;2023-02-16T01:32:05;35.03;;;11.10;;
18881;SDS011;9573;50.948;11.600;2023-02-16T01:34:33;33.43;;;11.30;;
18881;SDS011;9573;50.948;11.600;2023-02-16T01:37:00;32.93;;;10.90;;
18881;SDS011;9573;50.948;11.600;2023-02-16T01:39:27;32.17;;;10.70;;
18881;SDS011;9573;50.948;11.600;2023-02-16T01:44:50;34.00;;;11.67;;
18881;SDS011;9573;50.948;11.600;2023-02-16T01:47:24;33.03;;;11.10;;
18881;SDS011;9573;50.948;11.600;2023-02-16T01:50:01;34.77;;;11.37;;
18881;SDS011;9573;50.948;11.600;2023-02-16T01:52:42;35.80;;;11.80;;
18881;SDS011;9573;50.948;11.600;2023-02-16T01:55:16;30.90;;;10.20;;
18881;SDS011;9573;50.948;11.600;2023-02-16T01:57:48;31.27;;;10.83;;
18881;SDS011;9573;50.948;11.600;2023-02-16T02:00:21;31.67;;;10.63;;
18881;SDS011;9573;50.948;11.600;2023-02-16T02:02:54;34.07;;;11.63;;
18881;SDS011;9573;50.948;11.600;2023-02-16T02:05:47;32.27;;;11.07;;
18881;SDS011;9573;50.948;11.600;2023-02-16T02:08:20;32.50;;;10.70;;
18881;SDS011;9573;50.948;11.600;2023-02-16T02:11:03;37.47;;;11.27;;
18881;SDS011;9573;50.948;11.600;2023-02-16T02:13:35;34.77;;;11.67;;
18881;SDS011;9573;50.948;11.600;2023-02-16T02:16:08;32.30;;;11.97;;
18881;SDS011;9573;50.948;11.600;2023-02-16T02:18:36;37.03;;;13.10;;
18881;SDS011;9573;50.948;11.600;2023-02-16T02:27:33;37.77;;;11.87;;
18881;SDS011;9573;50.948;11.600;2023-02-16T02:30:09;35.73;;;12.53;;
18881;SDS011;9573;50.948;11.600;2023-02-16T02:32:58;36.83;;;12.33;;
18881;SDS011;9573;50.948;11.600;2023-02-16T02:35:47;34.23;;;12.23;;
18881;SDS011;9573;50.948;11.600;2023-02-16T02:38:24;38.17;;;12.23;;
18881;SDS011;9573;50.948;11.600;2023-02-16T02:41:01;34.23;;;11.80;;
18881;SDS011;9573;50.948;11.600;2023-02-16T02:43:37;37.27;;;13.23;;
18881;SDS011;9573;50.948;11.600;2023-02-16T02:46:11;35.33;;;12.30;;
18881;SDS011;9573;50.948;11.600;2023-02-16T02:48:43;33.77;;;12.00;;
18881;SDS011;9573;50.948;11.600;2023-02-16T02:51:11;36.00;;;13.13;;
18881;SDS011;9573;50.948;11.600;2023-02-16T02:54:00;35.37;;;12.30;;
18881;SDS011;9573;50.948;11.600;2023-02-16T02:56:50;37.53;;;12.37;;
18881;SDS011;9573;50.948;11.600;2023-02-16T02:59:42;38.67;;;13.47;;
18881;SDS011;9573;50.948;11.600;2023-02-16T03:02:32;35.57;;;12.90;;
18881;SDS011;9573;50.948;11.600;2023-02-16T03:05:02;36.70;;;12.30;;
18881;SDS011;9573;50.948;11.600;2023-02-16T03:07:31;36.93;;;12.67;;
18881;SDS011;9573;50.948;11.600;2023-02-16T03:10:14;35.57;;;12.60;;
18881;SDS011;9573;50.948;11.600;2023-02-16T03:13:02;37.70;;;12.57;;
18881;SDS011;9573;50.948;11.600;2023-02-16T03:15:35;38.13;;;12.83;;
18881;SDS011;9573;50.948;11.600;2023-02-16T03:18:05;35.20;;;11.33;;
18881;SDS011;9573;50.948;11.600;2023-02-16T03:20:52;37.03;;;12.60;;
18881;SDS011;9573;50.948;11.600;2023-02-16T03:23:37;37.37;;;13.50;;
18881;SDS011;9573;50.948;11.600;2023-02-16T03:26:25;38.00;;;13.10;;
18881;SDS011;9573;50.948;11.600;2023-02-16T03:29:11;37.73;;;12.33;;
18881;SDS011;9573;50.948;11.600;2023-02-16T03:31:48;35.77;;;12.90;;
18881;SDS011;9573;50.948;11.600;2023-02-16T03:34:17;37.07;;;13.30;;
18881;SDS011;9573;50.948;11.600;2023-02-16T03:36:48;38.33;;;13.90;;
18881;SDS011;9573;50.948;11.600;2023-02-16T03:39:19;39.03;;;12.43;;
18881;SDS011;9573;50.948;11.600;2023-02-16T03:41:47;34.43;;;12.67;;
18881;SDS011;9573;50.948;11.600;2023-02-16T03:44:16;37.60;;;14.03;;
18881;SDS011;9573;50.948;11.600;2023-02-16T03:46:44;40.43;;;14.03;;
18881;SDS011;9573;50.948;11.600;2023-02-16T03:49:14;38.13;;;13.47;;
18881;SDS011;9573;50.948;11.600;2023-02-16T03:51:42;36.50;;;13.50;;
18881;SDS011;9573;50.948;11.600;2023-02-16T03:54:09;38.40;;;13.93;;
18881;SDS011;9573;50.948;11.600;2023-02-16T03:56:37;37.30;;;13.37;;
18881;SDS011;9573;50.948;11.600;2023-02-16T03:59:04;38.53;;;13.73;;
18881;SDS011;9573;50.948;11.600;2023-02-16T04:01:31;36.77;;;13.07;;
18881;SDS011;9573;50.948;11.600;2023-02-16T04:03:58;37.17;;;13.70;;
18881;SDS011;9573;50.948;11.600;2023-02-16T04:06:26;38.30;;;13.47;;
18881;SDS011;9573;50.948;11.600;2023-02-16T04:08:53;38.13;;;14.33;;
18881;SDS011;9573;50.948;11.600;2023-02-16T04:11:21;36.03;;;13.03;;
18881;SDS011;9573;50.948;11.600;2023-02-16T04:14:05;40.17;;;14.47;;
18881;SDS011;9573;50.948;11.600;2023-02-16T04:16:32;41.30;;;14.97;;
18881;SDS011;9573;50.948;11.600;2023-02-16T04:18:59;43.13;;;15.87;;
18881;SDS011;9573;50.948;11.600;2023-02-16T04:21:27;41.57;;;15.57;;
18881;SDS011;9573;50.948;11.600;2023-02-16T04:23:54;40.03;;;15.67;;
18881;SDS011;9573;50.948;11.600;2023-02-16T04:26:21;43.97;;;16.03;;
18881;SDS011;9573;50.948;11.600;2023-02-16T04:28:48;48.13;;;18.00;;
18881;SDS011;9573;50.948;11.600;2023-02-16T04:31:16;43.60;;;16.80;;
18881;SDS011;9573;50.948;11.600;2023-02-16T04:33:43;38.57;;;15.03;;
18881;SDS011;9573;50.948;11.600;2023-02-16T04:36:10;41.30;;;15.30;;
18881;SDS011;9573;50.948;11.600;2023-02-16T04:38:38;44.00;;;15.80;;
18881;SDS011;9573;50.948;11.600;2023-02-16T04:41:05;40.73;;;14.53;;
18881;SDS011;9573;50.948;11.600;2023-02-16T04:43:32;39.10;;;14.67;;
18881;SDS011;9573;50.948;11.600;2023-02-16T04:45:59;48.60;;;17.10;;
18881;SDS011;9573;50.948;11.600;2023-02-16T04:48:26;43.17;;;15.80;;
18881;SDS011;9573;50.948;11.600;2023-02-16T04:50:54;41.70;;;15.77;;
18881;SDS011;9573;50.948;11.600;2023-02-16T04:53:21;42.60;;;15.27;;
18881;SDS011;9573;50.948;11.600;2023-02-16T04:55:49;40.77;;;15.60;;
18881;SDS011;9573;50.948;11.600;2023-02-16T04:58:16;40.47;;;15.20;;
18881;SDS011;9573;50.948;11.600;2023-02-16T05:00:43;40.43;;;14.30;;
18881;SDS011;9573;50.948;11.600;2023-02-16T05:03:11;43.53;;;14.77;;
18881;SDS011;9573;50.948;11.600;2023-02-16T05:05:38;42.50;;;15.03;;
18881;SDS011;9573;50.948;11.600;2023-02-16T05:08:05;39.03;;;13.90;;
18881;SDS011;9573;50.948;11.600;2023-02-16T05:10:32;46.00;;;14.70;;
18881;SDS011;9573;50.948;11.600;2023-02-16T05:13:01;43.60;;;15.63;;
18881;SDS011;9573;50.948;11.600;2023-02-16T05:15:45;43.30;;;15.40;;
18881;SDS011;9573;50.948;11.600;2023-02-16T05:18:13;40.47;;;15.10;;
18881;SDS011;9573;50.948;11.600;2023-02-16T05:20:40;43.70;;;15.57;;
18881;SDS011;9573;50.948;11.600;2023-02-16T05:23:24;42.10;;;15.50;;
18881;SDS011;9573;50.948;11.600;2023-02-16T05:25:51;41.30;;;14.53;;
18881;SDS011;9573;50.948;11.600;2023-02-16T05:28:19;41.00;;;14.83;;
18881;SDS011;9573;50.948;11.600;2023-02-16T05:30:47;38.83;;;13.73;;
18881;SDS011;9573;50.948;11.600;2023-02-16T05:33:14;47.43;;;15.60;;
18881;SDS011;9573;50.948;11.600;2023-02-16T05:35:41;46.30;;;17.23;;
18881;SDS011;9573;50.948;11.600;2023-02-16T05:38:08;43.57;;;15.63;;
18881;SDS011;9573;50.948;11.600;2023-02-16T05:40:35;44.47;;;15.50;;
18881;SDS011;9573;50.948;11.600;2023-02-16T05:43:02;42.80;;;15.73;;
18881;SDS011;9573;50.948;11.600;2023-02-16T05:45:30;44.37;;;13.83;;
18881;SDS011;9573;50.948;11.600;2023-02-16T05:47:57;45.80;;;14.40;;
18881;SDS011;9573;50.948;11.600;2023-02-16T05:50:25;37.87;;;13.50;;
18881;SDS011;9573;50.948;11.600;2023-02-16T05:52:52;43.43;;;14.10;;
18881;SDS011;9573;50.948;11.600;2023-02-16T05:55:19;41.30;;;14.83;;
18881;SDS011;9573;50.948;11.600;2023-02-16T05:57:46;42.53;;;15.33;;
18881;SDS011;9573;50.948;11.600;2023-02-16T06:00:13;43.13;;;14.97;;
18881;SDS011;9573;50.948;11.600;2023-02-16T06:02:43;46.13;;;16.60;;
18881;SDS011;9573;50.948;11.600;2023-02-16T06:05:10;42.57;;;15.97;;
18881;SDS011;9573;50.948;11.600;2023-02-16T06:07:37;46.33;;;14.87;;
18881;SDS011;9573;50.948;11.600;2023-02-16T06:10:05;43.20;;;14.63;;
18881;SDS011;9573;50.948;11.600;2023-02-16T06:12:33;41.30;;;14.03;;
18881;SDS011;9573;50.948;11.600;2023-02-16T06:15:00;42.27;;;15.53;;
18881;SDS011;9573;50.948;11.600;2023-02-16T06:17:27;43.90;;;15.17;;
18881;SDS011;9573;50.948;11.600;2023-02-16T06:19:55;47.47;;;14.90;;
18881;SDS011;9573;50.948;11.600;2023-02-16T06:22:22;44.23;;;15.83;;
18881;SDS011;9573;50.948;11.600;2023-02-16T06:24:50;54.23;;;15.93;;
18881;SDS011;9573;50.948;11.600;2023-02-16T06:27:17;43.20;;;15.83;;
18881;SDS011;9573;50.948;11.600;2023-02-16T06:29:44;42.60;;;14.87;;
18881;SDS011;9573;50.948;11.600;2023-02-16T06:32:11;40.00;;;15.83;;
18881;SDS011;9573;50.948;11.600;2023-02-16T06:34:38;50.50;;;16.67;;
18881;SDS011;9573;50.948;11.600;2023-02-16T06:37:06;46.03;;;16.50;;
18881;SDS011;9573;50.948;11.600;2023-02-16T06:39:33;43.40;;;15.30;;
18881;SDS011;9573;50.948;11.600;2023-02-16T06:42:00;46.50;;;16.03;;
18881;SDS011;9573;50.948;11.600;2023-02-16T06:44:27;43.37;;;15.87;;
18881;SDS011;9573;50.948;11.600;2023-02-16T06:46:55;41.77;;;15.13;;
18881;SDS011;9573;50.948;11.600;2023-02-16T06:49:22;46.23;;;15.63;;
18881;SDS011;9573;50.948;11.600;2023-02-16T06:51:50;43.40;;;15.10;;
18881;SDS011;9573;50.948;11.600;2023-02-16T06:54:18;45.97;;;16.10;;
18881;SDS011;9573;50.948;11.600;2023-02-16T06:56:46;45.47;;;16.70;;
18881;SDS011;9573;50.948;11.600;2023-02-16T06:59:13;43.37;;;16.17;;
18881;SDS011;9573;50.948;11.600;2023-02-16T07:01:40;45.63;;;16.57;;
18881;SDS011;9573;50.948;11.600;2023-02-16T07:04:07;42.23;;;14.53;;
18881;SDS011;9573;50.948;11.600;2023-02-16T07:06:34;49.03;;;15.97;;
18881;SDS011;9573;50.948;11.600;2023-02-16T07:09:02;47.33;;;16.57;;
18881;SDS011;9573;50.948;11.600;2023-02-16T07:11:30;45.97;;;15.43;;
18881;SDS011;9573;50.948;11.600;2023-02-16T07:13:58;43.77;;;16.23;;
18881;SDS011;9573;50.948;11.600;2023-02-16T07:16:25;45.60;;;18.13;;
18881;SDS011;9573;50.948;11.600;2023-02-16T07:18:52;50.13;;;19.37;;
18881;SDS011;9573;50.948;11.600;2023-02-16T07:21:19;53.40;;;20.77;;
18881;SDS011;9573;50.948;11.600;2023-02-16T07:23:46;44.70;;;18.20;;
18881;SDS011;9573;50.948;11.600;2023-02-16T07:26:13;49.80;;;18.53;;
18881;SDS011;9573;50.948;11.600;2023-02-16T07:28:42;47.27;;;18.10;;
18881;SDS011;9573;50.948;11.600;2023-02-16T07:31:09;40.57;;;16.53;;
18881;SDS011;9573;50.948;11.600;2023-02-16T07:33:39;38.53;;;15.47;;
18881;SDS011;9573;50.948;11.600;2023-02-16T07:36:07;41.17;;;16.50;;
18881;SDS011;9573;50.948;11.600;2023-02-16T07:38:36;36.27;;;14.77;;
18881;SDS011;9573;50.948;11.600;2023-02-16T07:41:05;41.03;;;15.00;;
18881;SDS011;9573;50.948;11.600;2023-02-16T07:43:33;38.37;;;14.23;;
18881;SDS011;9573;50.948;11.600;2023-02-16T07:46:01;36.13;;;14.97;;
18881;SDS011;9573;50.948;11.600;2023-02-16T07:48:29;40.30;;;15.37;;
18881;SDS011;9573;50.948;11.600;2023-02-16T07:50:56;37.83;;;15.20;;
18881;SDS011;9573;50.948;11.600;2023-02-16T07:53:24;37.97;;;14.70;;
18881;SDS011;9573;50.948;11.600;2023-02-16T07:55:51;37.97;;;15.37;;
18881;SDS011;9573;50.948;11.600;2023-02-16T07:58:18;37.43;;;15.97;;
18881;SDS011;9573;50.948;11.600;2023-02-16T08:00:52;38.10;;;15.63;;
18881;SDS011;9573;50.948;11.600;2023-02-16T08:03:22;35.57;;;15.23;;
18881;SDS011;9573;50.948;11.600;2023-02-16T08:05:49;35.93;;;15.23;;
18881;SDS011;9573;50.948;11.600;2023-02-16T08:08:16;35.87;;;14.67;;
18881;SDS011;9573;50.948;11.600;2023-02-16T08:10:44;34.47;;;14.70;;
18881;SDS011;9573;50.948;11.600;2023-02-16T08:13:11;33.43;;;14.67;;
18881;SDS011;9573;50.948;11.600;2023-02-16T08:15:40;33.60;;;15.20;;
18881;SDS011;9573;50.948;11.600;2023-02-16T08:18:08;37.10;;;14.57;;
18881;SDS011;9573;50.948;11.600;2023-02-16T08:20:37;34.83;;;15.10;;
18881;SDS011;9573;50.948;11.600;2023-02-16T08:23:04;33.20;;;15.20;;
18881;SDS011;9573;50.948;11.600;2023-02-16T08:25:32;33.60;;;14.63;;
18881;SDS011;9573;50.948;11.600;2023-02-16T08:27:59;36.80;;;15.20;;
18881;SDS011;9573;50.948;11.600;2023-02-16T08:30:26;30.80;;;14.43;;
18881;SDS011;9573;50.948;11.600;2023-02-16T08:32:53;30.77;;;13.73;;
18881;SDS011;9573;50.948;11.600;2023-02-16T08:35:24;33.80;;;14.03;;
18881;SDS011;9573;50.948;11.600;2023-02-16T08:37:54;30.00;;;14.03;;
18881;SDS011;9573;50.948;11.600;2023-02-16T08:40:21;34.67;;;15.17;;
18881;SDS011;9573;50.948;11.600;2023-02-16T08:42:48;33.23;;;14.67;;
18881;SDS011;9573;50.948;11.600;2023-02-16T08:45:16;35.47;;;14.60;;
18881;SDS011;9573;50.948;11.600;2023-02-16T08:47:43;36.70;;;14.90;;
18881;SDS011;9573;50.948;11.600;2023-02-16T08:50:11;33.53;;;15.23;;
18881;SDS011;9573;50.948;11.600;2023-02-16T08:52:40;31.70;;;14.27;;
18881;SDS011;9573;50.948;11.600;2023-02-16T08:55:08;32.73;;;14.70;;
18881;SDS011;9573;50.948;11.600;2023-02-16T08:57:36;31.33;;;14.30;;
18881;SDS011;9573;50.948;11.600;2023-02-16T09:00:03;30.37;;;14.23;;
18881;SDS011;9573;50.948;11.600;2023-02-16T09:02:49;32.90;;;14.53;;
18881;SDS011;9573;50.948;11.600;2023-02-16T09:05:16;33.37;;;14.80;;
18881;SDS011;9573;50.948;11.600;2023-02-16T09:07:43;32.93;;;14.87;;
18881;SDS011;9573;50.948;11.600;2023-02-16T09:10:12;32.27;;;15.57;;
18881;SDS011;9573;50.948;11.600;2023-02-16T09:12:39;32.57;;;14.20;;
18881;SDS011;9573;50.948;11.600;2023-02-16T09:15:07;34.93;;;14.57;;
18881;SDS011;9573;50.948;11.600;2023-02-16T09:17:36;34.93;;;14.97;;
18881;SDS011;9573;50.948;11.600;2023-02-16T09:20:04;34.47;;;14.83;;
18881;SDS011;9573;50.948;11.600;2023-02-16T09:22:32;35.27;;;15.03;;
18881;SDS011;9573;50.948;11.600;2023-02-16T09:24:59;35.70;;;13.87;;
18881;SDS011;9573;50.948;11.600;2023-02-16T09:27:28;35.63;;;13.87;;
18881;SDS011;9573;50.948;11.600;2023-02-16T09:29:55;33.50;;;14.37;;
18881;SDS011;9573;50.948;11.600;2023-02-16T09:32:26;33.13;;;14.13;;
18881;SDS011;9573;50.948;11.600;2023-02-16T09:34:54;31.20;;;14.87;;
18881;SDS011;9573;50.948;11.600;2023-02-16T09:37:21;32.40;;;14.07;;
18881;SDS011;9573;50.948;11.600;2023-02-16T09:39:48;36.67;;;14.60;;
18881;SDS011;9573;50.948;11.600;2023-02-16T09:42:19;33.97;;;15.47;;
18881;SDS011;9573;50.948;11.600;2023-02-16T09:45:01;35.87;;;14.40;;
18881;SDS011;9573;50.948;11.600;2023-02-16T09:47:34;34.47;;;14.10;;
18881;SDS011;9573;50.948;11.600;2023-02-16T09:50:11;34.87;;;14.20;;
18881;SDS011;9573;50.948;11.600;2023-02-16T09:52:43;32.77;;;13.90;;
18881;SDS011;9573;50.948;11.600;2023-02-16T09:55:18;36.13;;;14.50;;
18881;SDS011;9573;50.948;11.600;2023-02-16T09:57:52;33.53;;;14.83;;
18881;SDS011;9573;50.948;11.600;2023-02-16T10:00:32;28.20;;;13.60;;
18881;SDS011;9573;50.948;11.600;2023-02-16T10:03:17;31.43;;;14.07;;
18881;SDS011;9573;50.948;11.600;2023-02-16T10:06:00;32.53;;;13.63;;
18881;SDS011;9573;50.948;11.600;2023-02-16T10:08:42;31.03;;;13.93;;
18881;SDS011;9573;50.948;11.600;2023-02-16T10:11:13;31.07;;;13.50;;
18881;SDS011;9573;50.948;11.600;2023-02-16T10:14:07;30.80;;;14.00;;
18881;SDS011;9573;50.948;11.600;2023-02-16T10:16:48;34.10;;;13.53;;
18881;SDS011;9573;50.948;11.600;2023-02-16T10:19:22;31.17;;;13.67;;
18881;SDS011;9573;50.948;11.600;2023-02-16T10:21:55;31.00;;;13.40;;
18881;SDS011;9573;50.948;11.600;2023-02-16T10:24:28;29.90;;;13.60;;
18881;SDS011;9573;50.948;11.600;2023-02-16T10:27:04;30.83;;;13.90;;
18881;SDS011;9573;50.948;11.600;2023-02-16T10:29:39;33.17;;;13.53;;
18881;SDS011;9573;50.948;11.600;2023-02-16T10:32:10;29.60;;;13.63;;
18881;SDS011;9573;50.948;11.600;2023-02-16T10:34:48;35.80;;;13.13;;
18881;SDS011;9573;50.948;11.600;2023-02-16T10:37:19;28.50;;;12.27;;
18881;SDS011;9573;50.948;11.600;2023-02-16T10:40:20;28.93;;;12.67;;
18881;SDS011;9573;50.948;11.600;2023-02-16T10:42:57;28.83;;;12.73;;
18881;SDS011;9573;50.948;11.600;2023-02-16T10:45:34;27.87;;;12.40;;
18881;SDS011;9573;50.948;11.600;2023-02-16T10:48:09;30.60;;;12.37;;
18881;SDS011;9573;50.948;11.600;2023-02-16T10:50:38;31.63;;;12.93;;
18881;SDS011;9573;50.948;11.600;2023-02-16T10:53:09;28.83;;;12.33;;
18881;SDS011;9573;50.948;11.600;2023-02-16T10:55:42;28.67;;;13.03;;
18881;SDS011;9573;50.948;11.600;2023-02-16T10:58:12;29.43;;;12.90;;
18881;SDS011;9573;50.948;11.600;2023-02-16T11:00:49;28.23;;;12.43;;
18881;SDS011;9573;50.948;11.600;2023-02-16T11:03:22;29.47;;;12.30;;
18881;SDS011;9573;50.948;11.600;2023-02-16T11:05:52;32.17;;;12.83;;
18881;SDS011;9573;50.948;11.600;2023-02-16T11:08:20;29.83;;;12.90;;
18881;SDS011;9573;50.948;11.600;2023-02-16T11:10:50;31.40;;;13.63;;
18881;SDS011;9573;50.948;11.600;2023-02-16T11:13:23;29.83;;;13.33;;
18881;SDS011;9573;50.948;11.600;2023-02-16T11:15:57;30.23;;;12.77;;
18881;SDS011;9573;50.948;11.600;2023-02-16T11:18:32;30.10;;;12.63;;
18881;SDS011;9573;50.948;11.600;2023-02-16T11:21:03;29.90;;;12.07;;
18881;SDS011;9573;50.948;11.600;2023-02-16T11:23:33;32.43;;;13.23;;
18881;SDS011;9573;50.948;11.600;2023-02-16T11:26:02;30.00;;;13.73;;
18881;SDS011;9573;50.948;11.600;2023-02-16T11:28:33;29.73;;;13.00;;
18881;SDS011;9573;50.948;11.600;2023-02-16T11:31:09;30.57;;;13.00;;
18881;SDS011;9573;50.948;11.600;2023-02-16T11:33:42;29.13;;;13.00;;
18881;SDS011;9573;50.948;11.600;2023-02-16T11:36:23;28.07;;;12.47;;
18881;SDS011;9573;50.948;11.600;2023-02-16T11:38:57;29.33;;;12.20;;
18881;SDS011;9573;50.948;11.600;2023-02-16T11:41:29;31.30;;;12.63;;
18881;SDS011;9573;50.948;11.600;2023-02-16T11:43:58;30.77;;;12.73;;
18881;SDS011;9573;50.948;11.600;2023-02-16T11:46:28;32.43;;;13.03;;
18881;SDS011;9573;50.948;11.600;2023-02-16T11:49:20;31.07;;;12.57;;
18881;SDS011;9573;50.948;11.600;2023-02-16T11:51:55;27.52;;;11.65;;
18881;SDS011;9573;50.948;11.600;2023-02-16T11:54:23;29.93;;;12.20;;
18881;SDS011;9573;50.948;11.600;2023-02-16T11:57:01;31.27;;;12.70;;
18881;SDS011;9573;50.948;11.600;2023-02-16T11:59:34;28.42;;;11.85;;
18881;SDS011;9573;50.948;11.600;2023-02-16T12:02:11;29.73;;;12.23;;
18881;SDS011;9573;50.948;11.600;2023-02-16T12:05:09;34.42;;;12.43;;
18881;SDS011;9573;50.948;11.600;2023-02-16T12:07:52;28.33;;;12.15;;
18881;SDS011;9573;50.948;11.600;2023-02-16T12:10:50;26.48;;;11.38;;
18881;SDS011;9573;50.948;11.600;2023-02-16T12:13:50;27.90;;;11.37;;
18881;SDS011;9573;50.948;11.600;2023-02-16T12:16:35;32.70;;;11.73;;
18881;SDS011;9573;50.948;11.600;2023-02-16T12:19:17;32.57;;;12.20;;
18881;SDS011;9573;50.948;11.600;2023-02-16T12:21:59;28.67;;;12.00;;
18881;SDS011;9573;50.948;11.600;2023-02-16T12:24:42;28.00;;;11.33;;
18881;SDS011;9573;50.948;11.600;2023-02-16T12:27:21;33.03;;;14.23;;
18881;SDS011;9573;50.948;11.600;2023-02-16T12:29:57;31.53;;;13.60;;
18881;SDS011;9573;50.948;11.600;2023-02-16T12:32:41;30.93;;;13.63;;
18881;SDS011;9573;50.948;11.600;2023-02-16T12:35:36;32.37;;;13.67;;
18881;SDS011;9573;50.948;11.600;2023-02-16T12:38:25;30.30;;;13.70;;
18881;SDS011;9573;50.948;11.600;2023-02-16T12:41:04;34.47;;;15.13;;
18881;SDS011;9573;50.948;11.600;2023-02-16T12:43:43;31.23;;;14.30;;
18881;SDS011;9573;50.948;11.600;2023-02-16T12:46:13;33.77;;;15.13;;
18881;SDS011;9573;50.948;11.600;2023-02-16T12:48:46;34.33;;;15.67;;
18881;SDS011;9573;50.948;11.600;2023-02-16T12:51:18;34.93;;;15.23;;
18881;SDS011;9573;50.948;11.600;2023-02-16T12:53:52;31.53;;;14.70;;
18881;SDS011;9573;50.948;11.600;2023-02-16T12:56:26;33.33;;;15.47;;
18881;SDS011;9573;50.948;11.600;2023-02-16T12:59:14;35.67;;;15.67;;
18881;SDS011;9573;50.948;11.600;2023-02-16T13:01:45;38.97;;;16.50;;
18881;SDS011;9573;50.948;11.600;2023-02-16T13:04:16;36.23;;;17.40;;
18881;SDS011;9573;50.948;11.600;2023-02-16T13:06:54;34.47;;;17.00;;
18881;SDS011;9573;50.948;11.600;2023-02-16T13:09:31;40.00;;;17.53;;
18881;SDS011;9573;50.948;11.600;2023-02-16T13:12:07;34.57;;;16.27;;
18881;SDS011;9573;50.948;11.600;2023-02-16T13:14:54;32.83;;;15.80;;
18881;SDS011;9573;50.948;11.600;2023-02-16T13:17:30;37.00;;;16.83;;
18881;SDS011;9573;50.948;11.600;2023-02-16T13:20:00;32.67;;;13.73;;
18881;SDS011;9573;50.948;11.600;2023-02-16T13:22:34;31.93;;;14.30;;
18881;SDS011;9573;50.948;11.600;2023-02-16T13:25:20;34.67;;;15.67;;
18881;SDS011;9573;50.948;11.600;2023-02-16T13:28:15;37.73;;;15.30;;
18881;SDS011;9573;50.948;11.600;2023-02-16T13:31:08;36.33;;;14.93;;
18881;SDS011;9573;50.948;11.600;2023-02-16T13:33:50;34.40;;;15.20;;
18881;SDS011;9573;50.948;11.600;2023-02-16T13:36:42;37.20;;;15.90;;
18881;SDS011;9573;50.948;11.600;2023-02-16T13:39:45;31.97;;;14.43;;
18881;SDS011;9573;50.948;11.600;2023-02-16T13:42:42;35.33;;;15.20;;
18881;SDS011;9573;50.948;11.600;2023-02-16T13:45:23;39.17;;;14.37;;
18881;SDS011;9573;50.948;11.600;2023-02-16T13:47:53;37.57;;;15.37;;
18881;SDS011;9573;50.948;11.600;2023-02-16T13:50:23;35.07;;;14.90;;
18881;SDS011;9573;50.948;11.600;2023-02-16T13:52:57;33.30;;;14.03;;
18881;SDS011;9573;50.948;11.600;2023-02-16T13:55:43;36.67;;;13.60;;
18881;SDS011;9573;50.948;11.600;2023-02-16T13:58:25;31.20;;;12.90;;
18881;SDS011;9573;50.948;11.600;2023-02-16T14:00:56;33.37;;;14.77;;
18881;SDS011;9573;50.948;11.600;2023-02-16T14:03:33;35.50;;;14.23;;
18881;SDS011;9573;50.948;11.600;2023-02-16T14:12:20;29.53;;;10.40;;
18881;SDS011;9573;50.948;11.600;2023-02-16T14:14:55;28.07;;;10.47;;
18881;SDS011;9573;50.948;11.600;2023-02-16T14:17:27;30.70;;;10.37;;
18881;SDS011;9573;50.948;11.600;2023-02-16T14:19:58;28.67;;;10.40;;
18881;SDS011;9573;50.948;11.600;2023-02-16T14:22:38;28.83;;;10.23;;
18881;SDS011;9573;50.948;11.600;2023-02-16T14:25:34;26.07;;;10.00;;
18881;SDS011;9573;50.948;11.600;2023-02-16T14:28:32;32.97;;;10.40;;
18881;SDS011;9573;50.948;11.600;2023-02-16T14:31:27;25.70;;;9.23;;
18881;SDS011;9573;50.948;11.600;2023-02-16T14:34:00;27.43;;;8.70;;
18881;SDS011;9573;50.948;11.600;2023-02-16T14:36:31;25.17;;;8.10;;
18881;SDS011;9573;50.948;11.600;2023-02-16T14:38:59;32.50;;;8.73;;
18881;SDS011;9573;50.948;11.600;2023-02-16T14:41:28;24.20;;;7.67;;
18881;SDS011;9573;50.948;11.600;2023-02-16T14:47:10;18.57;;;5.93;;
18881;SDS011;9573;50.948;11.600;2023-02-16T14:49:56;15.87;;;4.87;;
18881;SDS011;9573;50.948;11.600;2023-02-16T14:52:49;18.77;;;6.23;;
18881;SDS011;9573;50.948;11.600;2023-02-16T14:55:41;20.27;;;6.60;;
18881;SDS011;9573;50.948;11.600;2023-02-16T14:58:50;20.67;;;6.63;;
18881;SDS011;9573;50.948;11.600;2023-02-16T15:01:26;21.83;;;6.53;;
18881;SDS011;9573;50.948;11.600;2023-02-16T15:03:53;19.20;;;6.40;;
18881;SDS011;9573;50.948;11.600;2023-02-16T15:06:25;22.67;;;7.03;;
18881;SDS011;9573;50.948;11.600;2023-02-16T15:08:58;22.70;;;7.60;;
18881;SDS011;9573;50.948;11.600;2023-02-16T15:11:30;22.63;;;7.40;;
18881;SDS011;9573;50.948;11.600;2023-02-16T15:14:07;23.60;;;7.80;;
18881;SDS011;9573;50.948;11.600;2023-02-16T15:16:40;21.80;;;7.20;;